Time;durP1;ratioP1;P1;durP2;ratioP2;P2;SDS_P1;SDS_P2;PMS_P1;PMS_P2;Temp;Humidity;BMP_temperature;BMP_pressure;BME280_temperature;BME280_humidity;BME280_pressure;Samples;Min_cycle;Max_cycle;Signal;HPM_P1;HPM_P2
2022/03/07 00:00:24;;;;;;;10.52;6.75;;;;;;;2.42;46.11;100532.06;1088191;54;20030;-77
2022/03/07 00:01:29;;;;;;;8.88;6.63;;;;;;;2.36;46.17;100541.16;1088218;54;20026;-78
2022/03/07 00:02:30;;;;;;;9.90;6.75;;;;;;;2.32;46.38;100522.00;1088243;54;20023;-77
2022/03/07 00:03:35;;;;;;;8.30;6.45;;;;;;;2.29;46.33;100522.16;1087943;54;20031;-78
2022/03/07 00:04:39;;;;;;;9.20;6.63;;;;;;;2.39;45.80;100530.47;1087739;54;20030;-77
2022/03/07 00:05:40;;;;;;;8.73;6.80;;;;;;;2.32;46.06;100531.69;1088025;54;20035;-77
2022/03/07 00:06:44;;;;;;;11.43;6.70;;;;;;;2.23;45.98;100540.94;1088154;54;20034;-79
2022/03/07 00:07:46;;;;;;;8.60;6.38;;;;;;;2.26;46.18;100532.03;1088225;54;20034;-77
2022/03/07 00:08:50;;;;;;;9.75;6.80;;;;;;;2.14;46.35;100530.88;1088204;54;20018;-78
2022/03/07 00:09:52;;;;;;;9.95;6.50;;;;;;;2.19;46.26;100528.84;1088054;54;20042;-78
2022/03/07 00:10:56;;;;;;;8.32;6.28;;;;;;;2.22;46.11;100538.41;1088219;54;20607;-77
2022/03/07 00:12:00;;;;;;;8.65;6.43;;;;;;;2.28;45.76;100530.16;1088206;54;20034;-77
2022/03/07 00:13:03;;;;;;;9.57;6.47;;;;;;;2.30;45.81;100531.78;1088181;54;20046;-78
2022/03/07 00:14:10;;;;;;;8.77;6.90;;;;;;;2.29;45.88;100530.06;1088135;54;20094;-77
2022/03/07 00:15:12;;;;;;;12.00;6.82;;;;;;;2.28;45.82;100528.34;1088226;54;20058;-77
2022/03/07 00:16:16;;;;;;;10.55;6.22;;;;;;;2.24;45.97;100539.16;1088131;54;20027;-76
2022/03/07 00:17:18;;;;;;;8.52;6.40;;;;;;;2.23;46.05;100535.69;1088214;54;20037;-77
2022/03/07 00:18:22;;;;;;;10.40;7.07;;;;;;;2.26;46.17;100529.38;1088372;46;20034;-77
2022/03/07 00:19:23;;;;;;;11.77;7.38;;;;;;;2.25;46.00;100528.53;1088163;54;21101;-76
2022/03/07 00:20:27;;;;;;;9.48;6.68;;;;;;;2.27;45.90;100531.09;1088061;54;20041;-78
2022/03/07 00:21:29;;;;;;;12.55;7.40;;;;;;;2.13;46.24;100531.81;1087767;54;20027;-76
2022/03/07 00:22:34;;;;;;;8.68;6.47;;;;;;;2.08;46.19;100536.47;1091681;39;20792;-77
2022/03/07 00:23:36;;;;;;;9.63;6.63;;;;;;;2.10;46.02;100534.59;1088171;54;20077;-75
2022/03/07 00:24:40;;;;;;;8.93;6.47;;;;;;;2.12;45.88;100532.72;1088171;54;20031;-76
2022/03/07 00:25:41;;;;;;;9.25;6.57;;;;;;;2.16;45.75;100535.13;1088272;54;20030;-77
2022/03/07 00:26:46;;;;;;;9.40;6.90;;;;;;;2.10;46.05;100534.59;1089591;39;20590;-80
2022/03/07 00:27:50;;;;;;;8.77;6.88;;;;;;;2.11;45.94;100541.56;1093378;46;20045;-82
2022/03/07 00:28:53;;;;;;;9.45;6.63;;;;;;;2.07;45.58;100530.31;1088584;54;20045;-82
2022/03/07 00:30:00;;;;;;;10.75;7.32;;;;;;;2.04;45.81;100551.56;1088214;54;20685;-81
2022/03/07 00:31:05;;;;;;;10.13;7.45;;;;;;;2.07;45.95;100545.31;1088538;54;20041;-79
2022/03/07 00:32:15;;;;;;;9.75;6.90;;;;;;;2.04;45.34;100541.03;1096238;46;20052;-80
2022/03/07 00:33:20;;;;;;;9.35;6.55;;;;;;;2.06;45.28;100539.16;1088171;54;20021;-79
2022/03/07 00:34:22;;;;;;;10.75;6.78;;;;;;;1.95;45.22;100536.22;1088582;54;20015;-79
2022/03/07 00:35:47;;;;;;;8.68;6.47;;;;;;;1.98;44.94;100543.97;1088585;54;20030;-81
2022/03/07 00:36:52;;;;;;;11.02;6.80;;;;;;;1.95;44.89;100545.00;1088411;54;20022;-79
2022/03/07 00:37:56;;;;;;;8.43;6.60;;;;;;;1.94;44.50;100548.56;1088534;54;20042;-78
2022/03/07 00:39:00;;;;;;;8.80;6.75;;;;;;;1.92;44.47;100547.78;1091674;46;20042;-79
2022/03/07 00:40:22;;;;;;;9.80;6.95;;;;;;;1.98;44.14;100541.34;1088482;54;20061;-79
2022/03/07 00:41:27;;;;;;;10.00;6.38;;;;;;;1.90;44.59;100549.63;1090313;46;20025;-79
2022/03/07 00:43:14;;;;;;;8.50;6.53;;;;;;;1.85;44.45;100541.94;1088422;54;20053;-79
2022/03/07 00:44:16;;;;;;;8.20;6.25;;;;;;;1.84;44.36;100545.50;1088553;54;20018;-80
2022/03/07 00:46:00;;;;;;;11.15;6.75;;;;;;;1.85;44.25;100546.38;1088485;54;20011;-79
2022/03/07 00:47:04;;;;;;;9.38;7.07;;;;;;;1.87;44.51;100547.16;1094374;46;20010;-79
2022/03/07 00:48:11;;;;;;;10.32;7.47;;;;;;;1.86;44.06;100548.09;1088505;54;20030;-79
2022/03/07 00:49:13;;;;;;;9.68;6.65;;;;;;;1.84;44.11;100544.66;1088555;54;20027;-80
2022/03/07 00:50:19;;;;;;;9.63;6.88;;;;;;;1.87;43.74;100544.53;1096828;46;20030;-80
2022/03/07 00:57:11;;;;;;;9.63;6.97;;;;;;;1.79;43.08;100546.69;1087620;54;20037;-81
2022/03/07 00:58:16;;;;;;;9.27;7.43;;;;;;;1.73;43.20;100546.97;1088437;54;20014;-80
2022/03/07 00:59:20;;;;;;;9.48;7.03;;;;;;;1.73;43.24;100549.63;1088436;54;20018;-80
2022/03/07 01:00:25;;;;;;;11.35;8.20;;;;;;;1.86;43.18;100548.09;1088429;54;20035;-80
2022/03/07 01:01:42;;;;;;;9.38;7.50;;;;;;;1.80;43.13;100543.97;1088485;54;20047;-79
2022/03/07 01:02:49;;;;;;;10.18;7.90;;;;;;;1.68;43.43;100544.56;1093599;39;20589;-79
2022/03/07 01:03:51;;;;;;;11.93;7.50;;;;;;;1.66;43.71;100543.78;1088342;54;20686;-78
2022/03/07 01:05:04;;;;;;;10.95;7.40;;;;;;;1.66;43.80;100547.28;1088525;54;20049;-78
2022/03/07 01:06:06;;;;;;;9.65;7.15;;;;;;;1.60;43.98;100541.47;1088454;54;20053;-81
2022/03/07 01:07:17;;;;;;;10.73;7.85;;;;;;;1.65;44.05;100544.75;1088369;54;20105;-81
2022/03/07 01:08:18;;;;;;;10.90;6.97;;;;;;;1.63;44.32;100539.53;1088445;54;20038;-79
2022/03/07 01:09:23;;;;;;;11.32;8.07;;;;;;;1.63;44.62;100542.16;1088487;54;20018;-78
2022/03/07 01:10:25;;;;;;;9.48;7.40;;;;;;;1.55;44.62;100539.06;1088574;54;20019;-78
2022/03/07 01:11:39;;;;;;;10.30;7.50;;;;;;;1.55;45.08;100537.28;1088478;54;20066;-80
2022/03/07 01:12:41;;;;;;;11.20;7.88;;;;;;;1.51;45.10;100545.41;1093189;47;20041;-79
2022/03/07 01:13:53;;;;;;;9.65;7.50;;;;;;;1.52;45.22;100539.19;1088498;54;20011;-80
2022/03/07 01:14:55;;;;;;;10.70;7.32;;;;;;;1.49;45.34;100544.63;1088486;54;20045;-80
2022/03/07 01:16:06;;;;;;;9.77;7.43;;;;;;;1.47;45.39;100539.41;1088499;54;20015;-78
2022/03/07 01:17:08;;;;;;;12.00;8.60;;;;;;;1.58;45.19;100544.19;1088222;54;20065;-79
2022/03/07 01:18:22;;;;;;;9.45;7.05;;;;;;;1.55;45.07;100534.66;1088365;54;20094;-78
2022/03/07 01:19:24;;;;;;;11.18;7.68;;;;;;;1.52;45.44;100544.47;1088364;54;20038;-80
2022/03/07 01:20:31;;;;;;;9.15;7.18;;;;;;;1.60;45.25;100547.59;1088448;54;20707;-81
2022/03/07 01:21:33;;;;;;;10.88;8.25;;;;;;;1.56;45.26;100540.75;1088504;54;20022;-78
2022/03/07 01:22:38;;;;;;;10.45;7.47;;;;;;;1.52;45.24;100533.91;1088482;54;20014;-81
2022/03/07 01:23:40;;;;;;;11.25;8.77;;;;;;;1.52;44.82;100534.78;1088446;54;20051;-78
2022/03/07 01:24:44;;;;;;;11.32;8.75;;;;;;;1.51;44.66;100532.25;1088511;54;20026;-79
2022/03/07 01:25:46;;;;;;;12.10;8.75;;;;;;;1.52;44.87;100539.19;1088471;54;20022;-80
2022/03/07 01:27:00;;;;;;;10.93;7.72;;;;;;;1.40;44.91;100532.75;1091088;47;20057;-80
2022/03/07 01:28:02;;;;;;;11.23;8.77;;;;;;;1.30;45.22;100539.38;1088377;54;20031;-79
2022/03/07 01:29:07;;;;;;;10.32;8.05;;;;;;;1.35;45.15;100538.22;1088432;54;20034;-78
2022/03/07 01:30:10;;;;;;;10.45;7.75;;;;;;;1.29;45.32;100541.16;1088420;54;20046;-80
2022/03/07 01:31:15;;;;;;;11.52;8.55;;;;;;;1.43;44.65;100539.63;1088390;54;20027;-79
2022/03/07 01:32:35;;;;;;;9.05;7.82;;;;;;;1.30;44.78;100542.00;1088464;54;20033;-78
2022/03/07 01:33:39;;;;;;;10.48;8.55;;;;;;;1.24;44.93;100529.97;1101563;39;20663;-79
2022/03/07 01:34:47;;;;;;;11.63;8.38;;;;;;;1.29;44.72;100532.41;1088786;39;20621;-79
2022/03/07 01:35:49;;;;;;;11.63;8.70;;;;;;;1.34;44.73;100533.06;1088482;54;20030;-78
2022/03/07 01:36:53;;;;;;;10.95;8.73;;;;;;;1.26;44.82;100522.88;1088345;54;20022;-80
2022/03/07 01:37:55;;;;;;;12.57;8.27;;;;;;;1.24;44.81;100536.13;1088382;54;20018;-78
2022/03/07 01:39:00;;;;;;;11.05;8.75;;;;;;;1.24;44.66;100536.13;1093254;39;20587;-78
2022/03/07 01:40:02;;;;;;;12.02;8.50;;;;;;;1.20;44.98;100528.44;1099055;39;20645;-78
2022/03/07 01:41:07;;;;;;;11.27;8.48;;;;;;;1.18;44.68;100525.03;1088576;54;20018;-80
2022/03/07 01:42:09;;;;;;;10.05;7.80;;;;;;;1.14;44.98;100529.59;1088746;54;20019;-79
2022/03/07 01:43:16;;;;;;;12.90;8.55;;;;;;;1.19;44.44;100532.84;1088701;54;20018;-81
2022/03/07 01:44:19;;;;;;;10.57;8.23;;;;;;;1.20;44.49;100533.72;1088757;54;20044;-78
2022/03/07 01:45:24;;;;;;;10.93;8.00;;;;;;;1.19;44.15;100527.56;1088700;54;20109;-77
2022/03/07 01:46:26;;;;;;;12.75;8.55;;;;;;;1.18;44.20;100525.03;1088708;54;20011;-79
2022/03/07 01:48:12;;;;;;;11.65;8.75;;;;;;;1.11;44.35;100529.72;1088831;46;20034;-78
2022/03/07 01:49:17;;;;;;;11.40;8.18;;;;;;;1.06;43.89;100529.94;1088770;54;20030;-78
2022/03/07 01:52:23;;;;;;;11.38;8.45;;;;;;;1.03;43.27;100516.94;1088785;54;20010;-79
2022/03/07 01:53:25;;;;;;;10.48;7.53;;;;;;;1.01;43.43;100524.03;1088693;54;20039;-79
2022/03/07 01:54:30;;;;;;;10.32;7.88;;;;;;;1.05;43.13;100520.31;1092158;46;20063;-78
2022/03/07 01:55:32;;;;;;;11.63;8.40;;;;;;;1.05;43.32;100517.69;1088632;54;20846;-78
2022/03/07 01:56:45;;;;;;;10.45;8.50;;;;;;;1.04;43.21;100517.78;1088708;54;20023;-79
2022/03/07 01:57:47;;;;;;;11.45;7.85;;;;;;;1.04;43.07;100517.78;1088387;54;20030;-79
2022/03/07 01:58:51;;;;;;;10.82;8.32;;;;;;;1.09;42.84;100521.91;1088705;54;20086;-78
2022/03/07 02:00:00;;;;;;;11.02;7.57;;;;;;;0.98;42.98;100515.44;1088667;54;20082;-79
2022/03/07 02:01:05;;;;;;;10.38;7.88;;;;;;;1.02;43.17;100524.88;1088723;54;20015;-78
2022/03/07 02:02:13;;;;;;;9.88;7.75;;;;;;;1.02;43.04;100512.59;1089902;46;20046;-78
2022/03/07 02:03:18;;;;;;;9.80;7.25;;;;;;;1.05;43.13;100514.22;1088738;54;20011;-79
2022/03/07 02:04:26;;;;;;;10.63;7.50;;;;;;;1.00;42.99;100524.09;1088704;54;20025;-81
2022/03/07 02:05:28;;;;;;;11.50;8.07;;;;;;;0.97;43.12;100521.63;1101999;46;20014;-77
2022/03/07 02:06:34;;;;;;;10.90;8.13;;;;;;;1.08;43.14;100520.19;1088539;54;20090;-80
2022/03/07 02:07:36;;;;;;;10.05;7.78;;;;;;;1.04;43.02;100521.25;1088576;54;20018;-80
2022/03/07 02:08:44;;;;;;;11.80;7.63;;;;;;;0.98;43.19;100518.91;1088706;54;20014;-78
2022/03/07 02:09:46;;;;;;;11.50;7.93;;;;;;;0.98;43.43;100513.63;1088714;54;20044;-78
2022/03/07 02:10:57;;;;;;;11.00;8.05;;;;;;;0.95;43.48;100515.56;1088660;54;20018;-79
2022/03/07 02:12:02;;;;;;;11.90;7.30;;;;;;;0.90;43.56;100514.00;1097823;46;20038;-80
2022/03/07 02:13:28;;;;;;;10.07;7.57;;;;;;;0.93;43.41;100513.03;1088735;54;20030;-78
2022/03/07 02:14:30;;;;;;;10.45;7.70;;;;;;;0.97;43.42;100517.19;1088686;54;20031;-78
2022/03/07 02:15:36;;;;;;;11.65;8.27;;;;;;;0.92;43.35;100513.94;1088657;54;20019;-79
2022/03/07 02:16:38;;;;;;;11.23;8.52;;;;;;;0.93;43.16;100511.22;1088732;54;20070;-80
2022/03/07 02:18:13;;;;;;;10.50;8.25;;;;;;;0.93;42.85;100510.38;1088787;54;20037;-81
2022/03/07 02:19:15;;;;;;;10.80;7.75;;;;;;;0.92;43.25;100514.78;1088715;54;20022;-80
2022/03/07 02:56:55;;;;;;;11.88;6.13;;;;;;;0.70;52.77;100509.66;1087649;54;20716;-80
2022/03/07 02:57:59;;;;;;;10.93;6.03;;;;;;;0.64;52.98;100504.69;1088659;54;20058;-77
2022/03/07 02:59:04;;;;;;;9.30;5.72;;;;;;;0.56;53.14;100506.81;1088792;54;20025;-79
2022/03/07 03:03:33;;;;;;;7.57;5.45;;;;;;;0.57;53.38;100519.88;1088450;54;20022;-79
2022/03/07 03:04:44;;;;;;;7.88;5.60;;;;;;;0.50;53.50;100522.84;1088529;54;20019;-80
2022/03/07 03:05:48;;;;;;;7.38;5.50;;;;;;;0.44;53.54;100519.59;1088574;54;20046;-78
2022/03/07 03:18:42;;;;;;;9.63;5.57;;;;;;;0.43;53.74;100530.16;1088581;54;20086;-79
2022/03/07 03:19:44;;;;;;;8.23;5.40;;;;;;;0.43;53.67;100533.66;1088529;54;20046;-78
2022/03/07 03:24:19;;;;;;;8.45;5.80;;;;;;;0.41;53.42;100534.66;1096921;39;21052;-80
2022/03/07 03:40:42;;;;;;;7.25;4.90;;;;;;;0.52;53.00;100536.81;1087659;54;20034;-78
2022/03/07 03:41:44;;;;;;;7.22;5.00;;;;;;;0.50;53.03;100529.00;1088561;54;20658;-80
2022/03/07 03:45:24;;;;;;;7.53;4.82;;;;;;;0.41;52.96;100535.50;1086633;54;21021;-78
2022/03/07 03:46:34;;;;;;;8.35;4.75;;;;;;;0.41;53.14;100543.38;1081407;54;21529;31
2022/03/07 03:49:15;;;;;;;7.22;4.82;;;;;;;0.44;52.63;100540.63;1081220;54;19934;-76
2022/03/07 03:50:17;;;;;;;8.18;4.85;;;;;;;0.43;52.82;100538.94;1088650;54;20034;-79
2022/03/07 03:57:10;;;;;;;9.02;4.85;;;;;;;0.42;52.81;100537.22;1098876;46;20015;-79
2022/03/07 04:25:25;;;;;;;6.37;4.50;;;;;;;0.22;52.66;100548.63;1077500;54;20077;-78
2022/03/07 04:26:26;;;;;;;6.88;4.50;;;;;;;0.26;52.85;100547.53;1088453;54;20044;-77
2022/03/07 04:27:32;;;;;;;6.97;4.95;;;;;;;0.27;52.64;100548.41;1088636;54;20015;-78
2022/03/07 04:28:35;;;;;;;6.85;4.47;;;;;;;0.31;52.55;100549.97;1088530;54;20025;-78
2022/03/07 04:29:40;;;;;;;7.05;4.80;;;;;;;0.28;52.39;100547.50;1088609;54;20053;-79
2022/03/07 04:34:13;;;;;;;6.57;4.47;;;;;;;0.24;52.45;100559.06;1087591;54;20041;-78
2022/03/07 04:35:14;;;;;;;7.03;4.53;;;;;;;0.27;52.48;100556.31;1088149;54;20050;-78
2022/03/07 04:36:20;;;;;;;8.85;4.47;;;;;;;0.25;52.62;100556.34;1088368;54;20078;-78
2022/03/07 04:37:24;;;;;;;7.50;4.75;;;;;;;0.20;52.38;100560.97;1090363;39;20661;-78
2022/03/07 04:38:26;;;;;;;7.43;5.18;;;;;;;0.23;52.35;100557.34;1087775;54;20034;-77
2022/03/07 04:39:30;;;;;;;7.35;4.68;;;;;;;0.32;52.66;100553.47;1087923;54;20033;-76
2022/03/07 04:40:36;;;;;;;8.05;5.00;;;;;;;0.25;52.50;100555.50;1087979;54;20053;-79
2022/03/07 04:41:40;;;;;;;7.25;4.75;;;;;;;0.27;52.21;100551.03;1088153;54;20034;-78
2022/03/07 04:42:44;;;;;;;10.65;4.60;;;;;;;0.25;52.35;100545.84;1088273;54;20023;-78
2022/03/07 04:43:48;;;;;;;7.45;5.00;;;;;;;0.25;52.27;100560.78;1088287;54;20034;-79
2022/03/07 04:44:49;;;;;;;6.38;4.45;;;;;;;0.24;52.47;100557.28;1088213;54;20031;-77
2022/03/07 04:45:54;;;;;;;6.97;4.75;;;;;;;0.25;52.21;100558.13;1088332;54;20019;-78
2022/03/07 04:46:55;;;;;;;7.38;4.85;;;;;;;0.24;52.18;100559.91;1087993;54;20039;-77
2022/03/07 04:47:59;;;;;;;6.97;4.57;;;;;;;0.27;52.23;100561.56;1088104;54;20042;-79
2022/03/07 04:49:11;;;;;;;7.28;4.60;;;;;;;0.29;52.23;100555.31;1088459;54;20022;-78
2022/03/07 04:50:15;;;;;;;8.13;4.60;;;;;;;0.28;51.94;100552.75;1088386;54;20022;-78
2022/03/07 04:51:19;;;;;;;9.35;4.70;;;;;;;0.24;52.00;100551.16;1088519;54;20022;-78
2022/03/07 04:52:23;;;;;;;9.57;5.10;;;;;;;0.26;51.79;100557.22;1092928;46;20019;-79
2022/03/07 04:53:26;;;;;;;7.25;4.60;;;;;;;0.20;51.97;100555.72;1088434;54;20030;-80
2022/03/07 04:54:30;;;;;;;7.95;4.78;;;;;;;0.20;52.14;100558.34;1088882;39;20595;-79
2022/03/07 04:55:38;;;;;;;9.27;4.97;;;;;;;0.09;52.02;100555.31;1088414;54;20037;-79
2022/03/07 04:56:43;;;;;;;7.60;4.95;;;;;;;0.13;52.25;100563.00;1088397;54;20043;-78
2022/03/07 04:57:48;;;;;;;7.90;4.60;;;;;;;0.08;52.34;100564.97;1088255;54;20026;-80
2022/03/07 04:58:49;;;;;;;8.05;5.03;;;;;;;0.08;52.29;100564.97;1088342;54;20063;-81
2022/03/07 04:59:53;;;;;;;8.45;5.15;;;;;;;0.17;51.89;100561.09;1088375;54;20070;-77
2022/03/07 05:00:55;;;;;;;8.02;4.97;;;;;;;0.21;51.75;100569.69;1088441;54;20023;-79
2022/03/07 05:01:59;;;;;;;7.60;5.10;;;;;;;0.11;52.09;100562.19;1089256;47;20050;-79
2022/03/07 05:03:01;;;;;;;7.90;4.47;;;;;;;0.10;52.02;100568.38;1088396;54;20784;-79
2022/03/07 05:04:07;;;;;;;8.07;5.18;;;;;;;0.10;52.05;100567.53;1088441;54;20071;-78
2022/03/07 05:05:08;;;;;;;7.50;4.72;;;;;;;0.10;52.03;100565.75;1088392;54;20051;-79
2022/03/07 05:06:13;;;;;;;7.13;4.80;;;;;;;0.13;51.94;100557.75;1088444;54;20109;-77
2022/03/07 05:07:14;;;;;;;9.55;5.00;;;;;;;0.12;51.90;100570.97;1088420;54;20687;-79
2022/03/07 05:08:19;;;;;;;8.35;5.38;;;;;;;0.12;51.78;100566.53;1088439;54;20026;-79
2022/03/07 05:09:20;;;;;;;8.18;5.15;;;;;;;0.07;51.82;100565.91;1101743;39;20711;-78
2022/03/07 05:10:25;;;;;;;8.65;5.20;;;;;;;0.12;51.67;100563.06;1088304;54;20035;-79
2022/03/07 05:11:29;;;;;;;7.32;5.15;;;;;;;0.15;51.69;100571.69;1088374;54;20104;-78
2022/03/07 05:12:34;;;;;;;7.85;5.32;;;;;;;0.01;52.01;100566.13;1088274;47;20034;-79
2022/03/07 05:13:36;;;;;;;7.82;5.22;;;;;;;0.08;51.91;100570.25;1088269;54;20038;-78
2022/03/07 05:14:42;;;;;;;6.03;4.38;;;;;;;0.06;52.05;100566.81;1088200;54;20030;-77
2022/03/07 05:15:43;;;;;;;7.05;5.25;;;;;;;0.09;51.89;100569.31;1088023;54;20042;-80
2022/03/07 05:16:48;;;;;;;8.07;5.40;;;;;;;0.10;51.94;100567.53;1088493;54;20031;-79
2022/03/07 05:17:53;;;;;;;8.20;4.93;;;;;;;0.11;51.87;100564.84;1092569;39;20597;-79
2022/03/07 05:18:58;;;;;;;7.57;5.00;;;;;;;0.15;51.59;100555.91;1088547;54;20016;-78
2022/03/07 05:19:59;;;;;;;7.63;4.60;;;;;;;0.09;51.48;100561.44;1088583;54;20074;-79
2022/03/07 05:21:03;;;;;;;8.48;5.18;;;;;;;0.02;51.82;100562.59;1088593;54;20025;-78
2022/03/07 05:22:05;;;;;;;6.93;5.03;;;;;;;-0.04;52.17;100565.50;1090607;39;20721;-80
2022/03/07 05:23:09;;;;;;;6.93;4.57;;;;;;;-0.02;51.83;100558.41;1088756;54;20068;-78
2022/03/07 05:24:14;;;;;;;8.65;5.95;;;;;;;-0.09;52.09;100567.44;1088785;54;20022;-77
2022/03/07 05:25:17;;;;;;;7.78;5.00;;;;;;;-0.05;52.09;100571.66;1088700;54;20026;-79
2022/03/07 05:26:21;;;;;;;7.85;5.47;;;;;;;-0.06;52.01;100567.31;1088624;54;20022;-80
2022/03/07 05:27:25;;;;;;;7.97;4.65;;;;;;;-0.09;52.03;100570.06;1088646;54;20037;-78
2022/03/07 05:28:29;;;;;;;6.82;4.60;;;;;;;-0.06;51.96;100572.56;1088523;54;20078;-78
2022/03/07 05:29:31;;;;;;;8.82;4.95;;;;;;;-0.06;52.17;100568.19;1088508;54;20033;-80
2022/03/07 05:30:35;;;;;;;8.57;5.50;;;;;;;0.01;51.84;100573.19;1088555;54;20014;-78
2022/03/07 05:31:37;;;;;;;6.72;4.88;;;;;;;0.05;51.89;100574.78;1088557;54;20037;-79
2022/03/07 05:32:42;;;;;;;8.77;4.80;;;;;;;0.03;51.72;100572.19;1088554;54;20017;-79
2022/03/07 05:33:43;;;;;;;7.10;5.15;;;;;;;-0.04;51.88;100582.09;1088599;54;20026;-80
2022/03/07 05:34:48;;;;;;;8.15;5.07;;;;;;;-0.05;51.89;100574.28;1088957;46;20030;-80
2022/03/07 05:35:49;;;;;;;8.13;5.20;;;;;;;-0.12;52.31;100573.69;1088665;54;20023;-79
2022/03/07 05:36:56;;;;;;;7.32;5.22;;;;;;;-0.12;52.35;100578.09;1088658;54;20041;-80
2022/03/07 05:37:57;;;;;;;8.40;5.43;;;;;;;-0.11;52.40;100583.28;1088450;54;20019;-78
2022/03/07 05:39:02;;;;;;;8.32;4.82;;;;;;;-0.10;52.38;100592.03;1088646;54;20037;-79
2022/03/07 05:40:06;;;;;;;7.25;4.97;;;;;;;-0.11;52.33;100580.66;1089565;39;20723;-79
2022/03/07 05:41:11;;;;;;;8.15;4.80;;;;;;;-0.04;52.16;100586.50;1088686;54;20015;-80
2022/03/07 05:42:13;;;;;;;7.28;5.05;;;;;;;-0.03;52.11;100588.22;1095922;46;20038;-79
2022/03/07 05:43:20;;;;;;;8.73;5.07;;;;;;;0.00;52.17;100582.84;1088766;54;20019;-80
2022/03/07 05:44:22;;;;;;;9.57;5.88;;;;;;;-0.06;51.98;100580.47;1088705;54;20043;-80
2022/03/07 05:45:26;;;;;;;7.32;5.10;;;;;;;-0.05;52.08;100571.66;1088706;54;20030;-80
2022/03/07 05:46:28;;;;;;;7.57;5.70;;;;;;;-0.10;52.15;100578.91;1088763;54;20014;-78
2022/03/07 05:47:35;;;;;;;8.75;5.45;;;;;;;-0.08;52.12;100577.03;1088723;54;20021;-80
2022/03/07 05:48:40;;;;;;;8.85;5.20;;;;;;;-0.13;52.47;100584.28;1088791;54;20671;-78
2022/03/07 05:49:42;;;;;;;7.90;5.32;;;;;;;-0.12;52.31;100588.63;1088697;54;20044;-79
2022/03/07 05:50:46;;;;;;;9.80;5.55;;;;;;;-0.07;52.29;100586.63;1088659;54;20029;-77
2022/03/07 05:51:48;;;;;;;8.23;6.18;;;;;;;-0.04;52.16;100591.78;1088651;54;20026;-78
2022/03/07 05:52:54;;;;;;;7.82;5.47;;;;;;;-0.07;52.21;100591.88;1088692;54;20128;-78
2022/03/07 05:53:56;;;;;;;9.88;6.45;;;;;;;-0.12;52.30;100588.63;1088536;54;20038;-79
2022/03/07 05:55:01;;;;;;;7.93;5.53;;;;;;;-0.16;52.37;100591.34;1088541;54;20041;-81
2022/03/07 05:56:08;;;;;;;7.70;5.18;;;;;;;-0.11;52.37;100590.31;1088624;54;20063;-79
2022/03/07 05:57:10;;;;;;;8.20;5.32;;;;;;;-0.09;52.22;100586.72;1088648;54;20015;-78
2022/03/07 05:58:14;;;;;;;9.30;5.68;;;;;;;-0.16;52.24;100583.47;1088648;54;20022;-79
2022/03/07 05:59:19;;;;;;;8.77;5.80;;;;;;;-0.04;52.16;100591.78;1088610;54;20691;-78
2022/03/07 06:00:24;;;;;;;8.20;5.68;;;;;;;-0.14;52.20;100587.81;1088694;54;20046;-80
2022/03/07 06:01:28;;;;;;;9.32;5.45;;;;;;;-0.15;52.33;100589.59;1088686;54;20030;-78
2022/03/07 06:02:31;;;;;;;8.25;5.47;;;;;;;-0.19;52.33;100599.34;1088619;54;20711;-80
2022/03/07 06:03:38;;;;;;;10.38;6.18;;;;;;;-0.17;52.17;100584.38;1088684;54;20019;-78
2022/03/07 06:04:41;;;;;;;9.95;6.38;;;;;;;-0.10;51.84;100592.03;1088727;54;20620;-80
2022/03/07 06:05:46;;;;;;;7.35;5.28;;;;;;;-0.19;52.16;100585.38;1088707;54;20082;-78
2022/03/07 06:06:48;;;;;;;10.55;6.50;;;;;;;-0.09;51.91;100588.47;1088678;54;20019;-79
2022/03/07 06:07:52;;;;;;;14.18;6.90;;;;;;;-0.19;52.02;100583.59;1088726;54;20027;-78
2022/03/07 06:08:54;;;;;;;9.43;6.15;;;;;;;-0.24;52.10;100585.56;1088715;54;20027;-80
2022/03/07 06:09:58;;;;;;;10.18;6.28;;;;;;;-0.28;52.40;100594.47;1088626;54;20030;-78
2022/03/07 06:11:00;;;;;;;10.15;5.97;;;;;;;-0.27;52.31;100590.09;1088513;54;20031;-80
2022/03/07 06:12:06;;;;;;;8.57;5.82;;;;;;;-0.31;52.32;100589.38;1088478;54;20019;-80
2022/03/07 06:13:10;;;;;;;8.80;6.15;;;;;;;-0.28;52.47;100593.63;1088444;54;20039;-77
2022/03/07 06:14:13;;;;;;;8.35;6.18;;;;;;;-0.23;52.22;100591.66;1088555;54;20030;-79
2022/03/07 06:15:20;;;;;;;9.25;6.28;;;;;;;-0.24;52.38;100596.06;1088471;54;20042;-79
2022/03/07 06:16:22;;;;;;;9.95;7.00;;;;;;;-0.26;52.27;100592.66;1088346;54;20030;-79
2022/03/07 06:17:33;;;;;;;8.93;6.45;;;;;;;-0.23;52.15;100594.28;1088501;54;20021;-80
2022/03/07 06:18:35;;;;;;;9.05;6.32;;;;;;;-0.21;51.98;100592.47;1088467;54;20025;-79
2022/03/07 06:19:46;;;;;;;10.07;5.88;;;;;;;-0.14;52.03;100593.91;1088574;54;20030;-79
2022/03/07 06:20:47;;;;;;;;;;;;;;;-0.19;51.72;100591.47;1088604;54;20034;-79
2022/03/07 06:21:54;;;;;;;12.40;7.10;;;;;;;-0.22;51.95;100586.34;1088466;54;19926;-79
2022/03/07 06:23:00;;;;;;;10.20;6.72;;;;;;;-0.16;52.06;100588.72;1088560;54;20026;-79
2022/03/07 06:24:02;;;;;;;10.50;6.72;;;;;;;-0.17;51.99;100587.00;1088694;54;20054;-79
2022/03/07 06:25:08;;;;;;;9.93;6.55;;;;;;;-0.28;52.06;100593.63;1088580;54;20034;-79
2022/03/07 06:26:13;;;;;;;10.55;7.03;;;;;;;-0.27;52.18;100590.94;1088519;54;20297;-81
2022/03/07 06:27:15;;;;;;;17.55;7.57;;;;;;;-0.15;52.00;100589.59;1088473;54;20015;-80
2022/03/07 06:28:20;;;;;;;11.30;7.00;;;;;;;-0.24;52.03;100590.81;1088480;54;20687;-79
2022/03/07 06:29:22;;;;;;;11.60;6.68;;;;;;;-0.26;52.12;100591.81;1088687;54;20026;-79
2022/03/07 06:30:29;;;;;;;14.30;7.53;;;;;;;-0.29;52.33;100584.03;1088693;54;20718;-80
2022/03/07 06:31:31;;;;;;;9.82;6.72;;;;;;;-0.26;52.36;100576.88;1088668;54;20015;-81
2022/03/07 06:32:35;;;;;;;9.50;7.07;;;;;;;-0.21;52.10;100589.84;1088663;54;20086;-79
2022/03/07 06:33:37;;;;;;;12.88;7.40;;;;;;;-0.19;51.99;100588.00;1088665;54;20029;-80
2022/03/07 06:34:42;;;;;;;10.68;6.97;;;;;;;-0.16;51.96;100588.72;1088623;54;20038;-79
2022/03/07 06:35:52;;;;;;;10.57;7.18;;;;;;;-0.12;51.85;100592.06;1088068;54;20018;-82
2022/03/07 06:37:05;;;;;;;10.18;6.78;;;;;;;-0.09;51.66;100594.59;1088562;54;20906;-78
2022/03/07 06:38:09;;;;;;;9.07;6.40;;;;;;;-0.03;51.57;100598.75;1088506;54;20041;-79
2022/03/07 06:39:11;;;;;;;11.55;7.50;;;;;;;-0.03;51.59;100598.75;1088633;54;20038;-78
2022/03/07 06:40:16;;;;;;;11.40;7.75;;;;;;;-0.05;51.40;100596.16;1088631;54;20042;-78
2022/03/07 06:41:18;;;;;;;10.40;7.63;;;;;;;-0.08;51.38;100601.56;1088637;54;20685;-79
2022/03/07 06:42:23;;;;;;;11.35;8.02;;;;;;;-0.08;51.50;100590.19;1088517;54;20051;-80
2022/03/07 06:43:25;;;;;;;14.55;8.15;;;;;;;-0.13;51.77;100598.25;1088453;54;20038;-79
2022/03/07 06:44:30;;;;;;;12.57;8.48;;;;;;;-0.16;51.80;100608.91;1088375;54;20030;-80
2022/03/07 06:45:38;;;;;;;11.18;7.68;;;;;;;-0.12;51.54;100593.88;1088526;54;20034;-79
2022/03/07 06:46:40;;;;;;;11.80;8.25;;;;;;;-0.02;51.45;100605.72;1088440;54;20030;-78
2022/03/07 06:47:45;;;;;;;11.20;7.72;;;;;;;-0.13;51.31;100605.28;1088336;54;20100;-78
2022/03/07 06:48:46;;;;;;;11.57;7.70;;;;;;;-0.17;51.66;100609.81;1089957;46;20086;-77
2022/03/07 06:49:55;;;;;;;12.40;8.00;;;;;;;-0.14;51.54;100603.59;1088427;54;20034;-80
2022/03/07 06:50:57;;;;;;;12.85;8.18;;;;;;;-0.13;51.76;100607.94;1107575;46;20037;-79
2022/03/07 06:52:03;;;;;;;13.43;8.73;;;;;;;-0.16;51.45;100619.44;1096720;39;20582;-79
2022/03/07 06:53:04;;;;;;;11.15;8.07;;;;;;;-0.07;51.13;100607.66;1088534;54;20035;-79
2022/03/07 06:54:12;;;;;;;10.65;8.10;;;;;;;-0.03;51.04;100604.84;1088405;54;20030;-79
2022/03/07 06:55:13;;;;;;;13.63;8.07;;;;;;;-0.08;51.18;100609.44;1088389;54;20018;-78
2022/03/07 06:56:22;;;;;;;15.43;8.88;;;;;;;-0.21;51.57;100621.38;1090542;46;20099;-79
2022/03/07 06:57:24;;;;;;;12.77;8.18;;;;;;;-0.27;51.58;100616.38;1088651;54;20034;-79
2022/03/07 06:58:28;;;;;;;11.75;7.82;;;;;;;-0.23;51.89;100612.69;1088649;54;20627;-79
2022/03/07 06:59:34;;;;;;;13.18;7.75;;;;;;;-0.18;51.55;100610.75;1090030;46;20034;-79
2022/03/07 07:00:41;;;;;;;12.35;8.15;;;;;;;-0.20;51.95;100623.94;1088569;54;20041;-79
2022/03/07 07:01:42;;;;;;;14.13;9.65;;;;;;;-0.18;51.61;100611.59;1088494;54;20034;-80
2022/03/07 07:02:47;;;;;;;17.92;11.40;;;;;;;-0.09;51.55;100620.88;1088634;54;20809;-78